Time;durP1;ratioP1;P1;durP2;ratioP2;P2;SDS_P1;SDS_P2;PMS_P1;PMS_P2;Temp;Humidity;BMP_temperature;BMP_pressure;BME280_temperature;BME280_humidity;BME280_pressure;Samples;Min_cycle;Max_cycle;Signal;HPM_P1;HPM_P2
2022/08/17 00:01:04;;;;;;;5.75;5.18;;;;;;;21.18;57.03;98342.91;5055095;28;20381;-80
2022/08/17 00:03:32;;;;;;;6.68;5.07;;;;;;;21.22;56.96;98343.84;5058937;28;20037;-80
2022/08/17 00:06:10;;;;;;;6.20;5.57;;;;;;;21.20;57.21;98346.09;5058576;28;20047;-80
2022/08/17 00:08:39;;;;;;;6.13;5.20;;;;;;;21.09;57.10;98350.31;5057487;28;20036;-80
2022/08/17 00:11:11;;;;;;;6.38;5.40;;;;;;;21.16;57.00;98353.31;5063680;28;20020;-80
2022/08/17 00:13:41;;;;;;;5.70;5.10;;;;;;;21.13;57.25;98362.88;5058251;28;20037;-80
2022/08/17 00:16:16;;;;;;;5.30;4.80;;;;;;;21.11;57.27;98358.91;5064760;28;20029;-80
2022/08/17 00:18:43;;;;;;;6.13;5.35;;;;;;;21.04;57.38;98345.06;5062065;28;20428;-80
2022/08/17 00:21:10;;;;;;;5.45;4.97;;;;;;;21.08;57.14;98352.22;5063652;28;20044;-80
2022/08/17 00:23:35;;;;;;;10.07;5.97;;;;;;;20.93;57.46;98331.84;5066023;28;20368;-80
2022/08/17 00:26:02;;;;;;;5.60;4.95;;;;;;;21.00;57.65;98344.09;5051631;28;20472;-79
2022/08/17 00:28:28;;;;;;;5.40;4.90;;;;;;;20.92;57.53;98332.97;5058804;28;20120;-80
2022/08/17 00:30:53;;;;;;;6.30;5.45;;;;;;;20.90;57.70;98343.34;5051022;28;20119;-80
2022/08/17 00:33:22;;;;;;;7.63;5.20;;;;;;;20.85;57.66;98340.84;5063684;28;20464;-80
2022/08/17 00:35:48;;;;;;;6.18;5.57;;;;;;;20.90;57.74;98348.78;5067351;28;20050;-80
2022/08/17 00:38:14;;;;;;;8.88;4.95;;;;;;;20.90;57.73;98354.19;5064406;28;20056;-80
2022/08/17 00:40:42;;;;;;;6.70;6.00;;;;;;;20.43;58.97;98332.88;5065021;28;20024;-79
2022/08/17 00:43:18;;;;;;;7.38;5.55;;;;;;;19.99;60.76;98358.47;5063410;28;20032;-80
2022/08/17 00:45:44;;;;;;;11.25;5.93;;;;;;;20.03;60.08;98341.25;5075740;28;20104;-80
2022/08/17 00:48:10;;;;;;;6.38;5.65;;;;;;;19.94;60.63;98348.59;5062341;28;20567;-80
2022/08/17 00:50:37;;;;;;;5.85;5.25;;;;;;;20.43;59.00;98344.53;5063953;28;20357;-80
2022/08/17 00:53:04;;;;;;;5.75;5.18;;;;;;;20.52;58.73;98344.50;5066784;28;20028;-80
2022/08/17 00:55:30;;;;;;;7.95;6.70;;;;;;;20.35;60.52;98348.06;5063871;28;20508;-80
2022/08/17 00:57:59;;;;;;;5.82;5.32;;;;;;;20.27;58.83;98319.06;5040652;28;20049;-80
2022/08/17 01:00:31;;;;;;;6.55;5.43;;;;;;;20.29;59.60;98349.34;5059076;28;20032;-80
2022/08/17 01:03:05;;;;;;;7.20;5.70;;;;;;;20.50;58.39;98327.75;5059195;28;20028;-79
2022/08/17 01:05:32;;;;;;;7.22;5.72;;;;;;;20.58;58.73;98349.41;5050232;28;20033;-80
2022/08/17 01:07:59;;;;;;;9.90;5.40;;;;;;;20.59;58.42;98345.59;5061270;28;20027;-80
2022/08/17 01:10:34;;;;;;;6.00;5.45;;;;;;;20.52;58.11;98325.50;5053291;28;20033;-80
2022/08/17 01:13:04;;;;;;;5.55;4.80;;;;;;;20.50;58.61;98328.56;5061996;28;20461;-80
2022/08/17 01:15:33;;;;;;;9.10;5.70;;;;;;;20.56;58.49;98340.00;5061205;28;20033;-80
2022/08/17 01:17:59;;;;;;;8.32;5.88;;;;;;;20.51;58.70;98332.84;5056438;28;20080;-80
2022/08/17 01:20:25;;;;;;;5.28;4.80;;;;;;;20.49;58.38;98340.50;5056995;28;20024;-80
2022/08/17 01:22:51;;;;;;;6.22;5.63;;;;;;;20.49;58.78;98343.22;5055825;28;20383;-80
2022/08/17 01:25:19;;;;;;;9.93;5.55;;;;;;;20.31;58.80;98336.28;5059270;28;20024;-80
2022/08/17 01:27:45;;;;;;;8.73;5.35;;;;;;;20.36;58.91;98336.09;5055985;28;20544;-80
2022/08/17 01:30:12;;;;;;;8.25;5.57;;;;;;;20.51;58.91;98351.81;5051859;28;20559;-80
2022/08/17 01:32:38;;;;;;;6.78;5.55;;;;;;;20.51;58.88;98351.06;5056769;28;20021;-80
2022/08/17 01:35:06;;;;;;;6.15;5.53;;;;;;;20.49;58.85;98347.84;5061781;28;20031;-80
2022/08/17 01:37:39;;;;;;;7.95;6.32;;;;;;;20.16;61.47;98350.31;5063873;28;20650;-80
2022/08/17 01:40:34;;;;;;;8.57;7.18;;;;;;;19.50;63.18;98353.59;5054051;28;20028;-80
2022/08/17 01:43:23;;;;;;;7.57;6.70;;;;;;;19.96;60.26;98334.75;5064109;28;20025;-80
2022/08/17 01:45:54;;;;;;;8.05;6.60;;;;;;;19.98;60.71;98352.28;5057110;28;20579;-80
2022/08/17 01:48:20;;;;;;;7.00;5.70;;;;;;;20.08;59.98;98348.41;5052307;28;20037;-80
2022/08/17 01:50:50;;;;;;;7.68;6.85;;;;;;;20.19;59.42;98347.78;5054767;28;20056;-80
2022/08/17 01:53:28;;;;;;;8.25;5.85;;;;;;;20.21;59.50;98343.94;5048785;28;20029;-80
2022/08/17 01:56:22;;;;;;;9.95;5.47;;;;;;;20.02;60.40;98358.66;5068762;28;20039;-80
2022/08/17 01:58:47;;;;;;;7.15;6.28;;;;;;;20.14;59.49;98352.53;5056525;28;20506;-80
2022/08/17 02:01:14;;;;;;;6.97;6.38;;;;;;;20.28;59.52;98346.97;5064193;28;20033;-80
2022/08/17 02:03:40;;;;;;;7.10;5.80;;;;;;;20.30;59.23;98353.66;5045918;28;20035;-80
2022/08/17 02:06:06;;;;;;;9.23;6.20;;;;;;;20.21;59.64;98342.03;5050502;28;20032;-80
2022/08/17 02:08:34;;;;;;;6.10;5.50;;;;;;;20.18;59.09;98337.25;5059936;28;20040;-80
2022/08/17 02:11:02;;;;;;;6.30;5.72;;;;;;;20.28;59.35;98346.97;5056177;28;20379;-80
2022/08/17 02:13:29;;;;;;;6.72;6.03;;;;;;;20.24;59.43;98348.75;5059832;28;20024;-80
2022/08/17 02:15:58;;;;;;;6.88;5.70;;;;;;;20.15;59.64;98336.00;5061743;28;20679;-80
2022/08/17 02:18:24;;;;;;;6.97;5.88;;;;;;;20.17;59.77;98333.75;5060655;28;20044;-79
2022/08/17 02:20:51;;;;;;;7.03;5.30;;;;;;;20.21;59.23;98336.63;5046369;28;20052;-79
2022/08/17 02:23:16;;;;;;;5.95;5.43;;;;;;;20.02;59.25;98319.91;5078808;28;20045;-80
2022/08/17 02:25:46;;;;;;;6.25;5.65;;;;;;;20.09;59.58;98334.53;5063943;28;20021;-80
2022/08/17 02:28:12;;;;;;;7.97;6.78;;;;;;;20.06;59.79;98323.56;5045271;28;20040;-80
2022/08/17 02:30:38;;;;;;;5.97;5.38;;;;;;;20.06;59.57;98335.22;5045683;28;20029;-80
2022/08/17 02:33:03;;;;;;;6.47;5.75;;;;;;;20.02;59.65;98325.34;5049556;28;20119;-80
2022/08/17 02:35:29;;;;;;;8.25;5.60;;;;;;;20.06;59.82;98335.22;5060786;28;20419;-80
2022/08/17 02:37:54;;;;;;;6.93;6.05;;;;;;;20.07;59.56;98336.00;5065303;28;20029;-80
2022/08/17 02:40:20;;;;;;;7.97;6.28;;;;;;;19.99;59.79;98329.47;5054130;28;20051;-80
2022/08/17 02:42:47;;;;;;;6.45;5.43;;;;;;;19.81;59.90;98322.50;5044196;28;20116;-80
2022/08/17 02:45:18;;;;;;;6.20;5.60;;;;;;;19.44;61.59;98328.56;5057332;28;20048;-79
2022/08/17 02:47:45;;;;;;;6.82;6.22;;;;;;;19.29;62.28;98329.81;5058925;28;20040;-79
2022/08/17 02:50:13;;;;;;;9.32;6.72;;;;;;;18.96;64.32;98338.69;5052243;28;20477;-79
2022/08/17 02:52:40;;;;;;;8.77;6.32;;;;;;;19.12;62.61;98323.59;5057650;28;20448;-80
2022/08/17 02:55:10;;;;;;;6.20;5.70;;;;;;;19.47;61.21;98324.44;5053135;28;20083;-79
2022/08/17 02:57:35;;;;;;;8.95;5.75;;;;;;;19.69;60.43;98329.69;5058745;28;20036;-79
2022/08/17 03:00:05;;;;;;;6.63;5.88;;;;;;;19.64;60.77;98337.97;5056231;28;20031;-79
2022/08/17 03:02:35;;;;;;;7.28;6.60;;;;;;;19.32;61.77;98318.38;5056250;28;20028;-80
2022/08/17 03:05:01;;;;;;;6.95;6.05;;;;;;;19.57;61.00;98322.19;5059963;28;20031;-80
2022/08/17 03:07:26;;;;;;;8.57;6.30;;;;;;;19.79;60.55;98332.84;5037448;28;20459;-79
2022/08/17 03:09:52;;;;;;;7.13;6.43;;;;;;;19.82;60.51;98329.50;5045287;28;20115;-80
2022/08/17 03:12:18;;;;;;;6.25;5.65;;;;;;;19.83;60.32;98333.78;5048749;28;20158;-80
2022/08/17 03:14:43;;;;;;;6.90;6.30;;;;;;;19.85;60.29;98333.50;5052839;28;20175;-79
2022/08/17 03:17:10;;;;;;;6.38;5.60;;;;;;;19.72;60.46;98337.97;5056383;28;20070;-79
2022/08/17 03:19:35;;;;;;;7.63;5.80;;;;;;;19.60;60.65;98326.97;5055884;28;20017;-79
2022/08/17 03:22:04;;;;;;;5.88;5.38;;;;;;;19.72;60.14;98334.47;5046484;28;20043;-79
2022/08/17 03:24:29;;;;;;;7.90;5.72;;;;;;;19.64;60.57;98327.13;5060397;28;20064;-79
2022/08/17 03:26:54;;;;;;;7.13;5.78;;;;;;;19.66;60.44;98325.69;5035145;28;20111;-79
2022/08/17 03:29:20;;;;;;;6.85;6.15;;;;;;;19.65;60.38;98329.53;5057819;28;20043;-79
2022/08/17 03:31:48;;;;;;;6.22;5.63;;;;;;;19.57;60.69;98332.25;5057369;28;20543;-80
2022/08/17 03:34:15;;;;;;;6.68;5.97;;;;;;;19.55;60.21;98324.44;5056745;28;20422;-80
2022/08/17 03:36:40;;;;;;;5.97;5.28;;;;;;;19.65;60.39;98329.53;5069028;28;20321;-79
2022/08/17 03:39:06;;;;;;;6.18;5.68;;;;;;;19.66;60.67;98328.41;5065955;28;20064;-80
2022/08/17 03:41:31;;;;;;;7.30;6.60;;;;;;;19.37;60.46;98293.09;5061336;28;20036;-79
2022/08/17 03:43:57;;;;;;;7.72;6.60;;;;;;;18.87;64.09;98314.31;5048623;28;20047;-79
2022/08/17 03:57:22;;;;;;;8.00;5.93;;;;;;;19.49;61.02;98314.06;5053070;28;20040;-80
2022/08/17 03:59:48;;;;;;;7.82;5.70;;;;;;;19.50;60.91;98321.09;5060134;28;20543;-79
2022/08/17 04:02:18;;;;;;;6.53;5.55;;;;;;;19.46;61.19;98323.66;5061515;28;20043;-80
2022/08/17 04:04:44;;;;;;;6.25;5.75;;;;;;;19.39;61.50;98312.50;5053087;28;20027;-80
2022/08/17 04:07:09;;;;;;;6.60;5.93;;;;;;;19.43;61.12;98308.84;5058680;28;20036;-80
2022/08/17 04:09:35;;;;;;;7.93;5.78;;;;;;;19.45;61.13;98313.94;5053231;28;20033;-80
2022/08/17 04:12:01;;;;;;;6.47;5.50;;;;;;;19.34;61.01;98302.63;5062981;28;20105;-80
2022/08/17 04:14:27;;;;;;;6.35;5.75;;;;;;;19.50;61.29;98321.09;5067153;28;20028;-79
2022/08/17 04:16:52;;;;;;;6.05;5.47;;;;;;;19.53;61.11;98315.84;5054885;28;20107;-79
2022/08/17 04:19:18;;;;;;;8.55;6.53;;;;;;;19.46;61.07;98314.72;5064510;28;20021;-79
2022/08/17 04:21:43;;;;;;;6.15;5.65;;;;;;;19.31;60.99;98319.47;5060516;28;20028;-80
2022/08/17 04:24:09;;;;;;;9.02;5.97;;;;;;;19.16;61.81;98319.94;5055963;28;20048;-79
2022/08/17 04:26:34;;;;;;;6.55;5.95;;;;;;;19.39;61.46;98312.50;5054232;28;20045;-80
2022/08/17 04:28:59;;;;;;;6.43;5.82;;;;;;;19.35;61.44;98312.31;5046278;28;20029;-79
2022/08/17 04:31:26;;;;;;;6.43;5.82;;;;;;;19.49;60.92;98324.91;5064668;28;20512;-79
2022/08/17 04:33:51;;;;;;;7.55;6.05;;;;;;;19.39;61.44;98309.81;5061844;28;20477;-79
2022/08/17 04:36:17;;;;;;;6.55;5.57;;;;;;;19.37;61.24;98310.09;5045640;28;20036;-79
2022/08/17 04:38:44;;;;;;;7.40;6.30;;;;;;;19.59;61.11;98335.44;5061291;28;20028;-79
2022/08/17 04:43:57;;;;;;;6.32;5.82;;;;;;;18.82;65.94;98343.41;5067768;28;20043;-79
2022/08/17 04:46:34;;;;;;;8.10;5.78;;;;;;;18.83;65.26;98345.03;5061671;28;20040;-79
2022/08/17 04:49:02;;;;;;;6.93;5.60;;;;;;;19.10;62.56;98342.03;5066613;28;20572;-79
2022/08/17 04:51:42;;;;;;;6.05;5.55;;;;;;;19.11;62.18;98330.91;5056346;28;20035;-79
2022/08/17 04:54:11;;;;;;;8.90;7.15;;;;;;;18.72;67.20;98360.72;5045061;28;20029;-79
2022/08/17 04:56:38;;;;;;;8.80;6.93;;;;;;;18.36;69.14;98363.56;5061259;28;20037;-79
2022/08/17 04:59:10;;;;;;;7.53;6.68;;;;;;;18.10;70.28;98364.53;5065407;28;20017;-79
2022/08/17 05:01:37;;;;;;;7.80;6.97;;;;;;;18.06;69.55;98352.75;5058590;28;20028;-79
2022/08/17 05:04:06;;;;;;;7.82;7.05;;;;;;;18.33;68.91;98374.97;5057640;28;20037;-80
2022/08/17 05:06:32;;;;;;;7.97;7.10;;;;;;;18.20;69.05;98380.47;5067767;28;20387;-79
2022/08/17 05:08:58;;;;;;;9.55;7.80;;;;;;;17.89;70.53;98378.53;5058324;28;20029;-79
2022/08/17 05:11:26;;;;;;;14.75;8.82;;;;;;;17.60;71.97;98377.34;5063992;28;20024;-79
2022/08/17 05:13:53;;;;;;;13.95;8.93;;;;;;;17.35;72.83;98384.06;5075326;28;20024;-79
2022/08/17 05:16:19;;;;;;;9.32;8.02;;;;;;;17.43;72.95;98388.75;5059567;28;20064;-79
2022/08/17 05:18:45;;;;;;;10.38;9.30;;;;;;;17.48;72.75;98385.94;5063842;28;20446;-79
2022/08/17 05:21:11;;;;;;;7.68;6.70;;;;;;;17.56;71.41;98371.75;5063926;28;20034;-79
2022/08/17 05:23:37;;;;;;;12.30;9.57;;;;;;;17.78;72.24;98390.66;5048453;28;20024;-79
2022/08/17 05:26:03;;;;;;;10.82;8.32;;;;;;;17.87;71.51;98386.13;5059732;28;20036;-79
2022/08/17 05:28:29;;;;;;;10.30;7.72;;;;;;;18.17;70.04;98386.50;5064511;28;20033;-79
2022/08/17 05:30:57;;;;;;;9.20;8.30;;;;;;;18.45;68.51;98369.03;5058882;28;20043;-79
2022/08/17 05:33:25;;;;;;;8.40;6.35;;;;;;;18.82;65.59;98387.47;5060883;28;20067;-79
2022/08/17 05:35:53;;;;;;;12.80;8.20;;;;;;;18.94;66.86;98376.84;5061179;28;20028;-79
2022/08/17 05:38:22;;;;;;;9.55;7.00;;;;;;;19.02;64.61;98361.78;5064382;28;20488;-79
2022/08/17 05:40:48;;;;;;;9.05;8.15;;;;;;;18.91;67.35;98390.22;5064617;28;20107;-79
2022/08/17 05:43:25;;;;;;;13.85;8.80;;;;;;;18.81;67.09;98388.59;5054411;28;20560;-79
2022/08/17 05:46:02;;;;;;;8.30;6.75;;;;;;;19.36;64.36;98387.00;5060445;28;20047;-79
2022/08/17 05:48:34;;;;;;;13.65;8.45;;;;;;;19.39;66.51;98382.88;5058032;28;20064;-79
2022/08/17 05:51:19;;;;;;;12.27;9.27;;;;;;;18.81;69.83;98379.66;5055629;28;20086;-79
2022/08/17 05:54:10;;;;;;;12.07;9.05;;;;;;;18.61;70.98;98392.63;5058561;28;20028;-79
2022/08/17 05:56:41;;;;;;;15.88;9.80;;;;;;;18.57;71.03;98386.25;5059213;28;20384;-79
2022/08/17 05:59:18;;;;;;;13.60;10.40;;;;;;;18.74;70.99;98392.88;5060084;28;20511;-79
2022/08/17 06:01:49;;;;;;;8.98;7.28;;;;;;;19.24;66.52;98394.13;5060021;28;20067;-80
2022/08/17 06:04:26;;;;;;;12.55;7.45;;;;;;;19.49;67.15;98371.72;5058997;28;20495;-80
2022/08/17 06:07:10;;;;;;;13.38;9.35;;;;;;;19.15;69.87;98383.28;5060897;28;20163;-80
2022/08/17 06:09:44;;;;;;;8.48;7.47;;;;;;;19.47;66.35;98382.09;5057122;28;20032;-79
2022/08/17 06:12:24;;;;;;;6.72;6.07;;;;;;;19.71;66.42;98393.25;5055593;28;20040;-80
2022/08/17 06:15:02;;;;;;;11.85;7.75;;;;;;;19.71;68.49;98385.13;5056905;28;20039;-80
2022/08/17 06:17:28;;;;;;;11.40;8.93;;;;;;;19.62;69.92;98388.94;5054907;28;20499;-80
2022/08/17 06:19:59;;;;;;;21.92;8.93;;;;;;;19.53;69.81;98388.94;5064071;28;20044;-79
2022/08/17 06:22:48;;;;;;;15.65;9.27;;;;;;;19.67;69.59;98386.88;5040915;28;20021;-79
2022/08/17 06:25:20;;;;;;;11.60;8.75;;;;;;;20.08;67.62;98394.50;5060259;28;20124;-79
2022/08/17 06:27:52;;;;;;;8.35;6.50;;;;;;;20.50;62.98;98390.13;5054637;28;20568;-80
2022/08/17 06:30:27;;;;;;;7.50;6.70;;;;;;;20.65;63.94;98379.53;5050308;28;20403;-80
2022/08/17 06:32:58;;;;;;;14.23;7.40;;;;;;;20.40;66.90;98388.53;5054347;28;20043;-80
2022/08/17 06:35:47;;;;;;;7.72;6.55;;;;;;;20.57;63.54;98377.66;5058303;28;20021;-80
2022/08/17 06:38:31;;;;;;;7.05;5.72;;;;;;;20.82;62.17;98374.03;5053231;28;20501;-80
2022/08/17 06:41:11;;;;;;;7.28;5.68;;;;;;;21.19;61.00;98391.44;5057000;28;20044;-80
2022/08/17 06:43:55;;;;;;;7.97;5.60;;;;;;;21.35;60.11;98394.38;5050304;28;20021;-80
2022/08/17 06:46:40;;;;;;;9.80;5.65;;;;;;;21.39;61.80;98392.59;5063289;28;20029;-80
2022/08/17 06:49:25;;;;;;;6.28;5.55;;;;;;;21.26;63.56;98396.34;5055280;28;20025;-80
2022/08/17 06:51:53;;;;;;;10.25;7.00;;;;;;;20.86;66.19;98393.16;5053484;28;20036;-80
2022/08/17 06:54:51;;;;;;;7.00;5.57;;;;;;;20.95;62.18;98374.16;5054173;28;20025;-80
2022/08/17 06:57:27;;;;;;;10.32;5.65;;;;;;;20.82;65.26;98395.75;5052784;28;20082;-80
2022/08/17 07:00:25;;;;;;;;;;;;;;;20.76;66.01;98394.34;5060781;28;20021;-80
2022/08/17 07:02:50;;;;;;;;;;;;;;;20.70;66.26;98398.38;5030464;28;19951;-79
2022/08/17 07:05:18;;;;;;;10.00;5.90;;;;;;;21.14;62.77;98388.94;5077402;28;20013;-80
2022/08/17 07:08:01;;;;;;;12.75;6.55;;;;;;;20.96;65.87;98398.25;5057834;28;20032;-80
2022/08/17 07:10:30;;;;;;;10.07;6.70;;;;;;;20.73;65.98;98396.88;5058978;28;20036;-80
2022/08/17 07:13:13;;;;;;;9.70;6.85;;;;;;;20.80;66.03;98403.41;5059290;28;20043;-79
2022/08/17 07:15:41;;;;;;;7.72;6.32;;;;;;;20.79;65.78;98390.19;5061564;28;20020;-79
2022/08/17 07:18:07;;;;;;;9.52;6.13;;;;;;;20.73;65.85;98392.25;5059329;28;20082;-79
2022/08/17 07:20:34;;;;;;;7.18;6.07;;;;;;;20.82;65.18;98393.03;5065153;28;20036;-79
2022/08/17 07:23:25;;;;;;;7.05;5.90;;;;;;;21.03;65.34;98386.88;5061669;28;20032;-79
2022/08/17 07:25:51;;;;;;;13.00;7.00;;;;;;;21.20;66.15;98392.22;5057796;28;20021;-79
2022/08/17 07:28:21;;;;;;;9.27;7.20;;;;;;;21.07;65.52;98374.25;5067511;28;20107;-79
2022/08/17 07:30:52;;;;;;;7.00;6.18;;;;;;;21.16;64.74;98377.72;5065656;28;20111;-80
2022/08/17 07:33:22;;;;;;;5.93;5.43;;;;;;;21.56;64.13;98401.41;5063042;28;20111;-80
2022/08/17 07:35:48;;;;;;;8.13;6.10;;;;;;;22.03;62.10;98399.31;5052392;28;20492;-80
2022/08/17 07:38:29;;;;;;;9.15;5.85;;;;;;;22.02;62.62;98399.63;5056416;28;20043;-80
2022/08/17 07:41:04;;;;;;;7.32;5.35;;;;;;;21.94;62.13;98392.34;5062614;28;20533;-79
2022/08/17 07:43:38;;;;;;;8.30;5.80;;;;;;;22.09;62.10;98389.00;5058517;28;20086;-80
2022/08/17 07:49:08;;;;;;;7.85;5.57;;;;;;;22.41;62.21;98380.03;5055232;28;20475;-79
2022/08/17 07:51:36;;;;;;;6.35;5.70;;;;;;;22.53;61.83;98387.44;5049777;28;20484;-80
2022/08/17 07:54:22;;;;;;;10.20;7.10;;;;;;;22.42;61.77;98380.81;5058345;28;20024;-80
2022/08/17 07:56:55;;;;;;;6.30;5.35;;;;;;;22.78;61.38;98386.38;5065173;28;20028;-80
2022/08/17 07:59:20;;;;;;;8.25;5.75;;;;;;;22.81;60.29;98386.47;5066605;28;20048;-80
2022/08/17 08:01:57;;;;;;;7.32;6.35;;;;;;;22.99;60.40;98397.94;5063427;28;20113;-80
2022/08/17 08:04:48;;;;;;;9.82;6.05;;;;;;;23.09;59.07;98379.22;5060193;28;20028;-80
2022/08/17 08:07:16;;;;;;;6.32;5.13;;;;;;;23.47;58.59;98384.31;5061505;28;20029;-80
2022/08/17 08:09:46;;;;;;;9.43;6.47;;;;;;;23.27;58.33;98365.34;5054617;28;20592;-80
2022/08/17 08:12:35;;;;;;;11.43;6.38;;;;;;;23.45;58.61;98396.69;5054680;28;20568;-80
2022/08/17 08:15:12;;;;;;;6.65;5.05;;;;;;;23.71;57.61;98399.81;5059184;28;20055;-80
2022/08/17 08:17:53;;;;;;;9.07;5.90;;;;;;;23.84;58.24;98393.97;5058384;28;20471;-81
2022/08/17 08:20:49;;;;;;;10.02;5.75;;;;;;;23.76;57.93;98378.53;5059809;28;20033;-81
2022/08/17 08:23:24;;;;;;;11.82;5.60;;;;;;;23.99;57.26;98397.09;5058533;28;20518;-81
2022/08/17 08:25:59;;;;;;;12.80;5.47;;;;;;;24.08;57.09;98390.38;5058702;28;20519;-81
2022/08/17 08:28:30;;;;;;;5.95;5.35;;;;;;;24.14;56.63;98396.38;5053359;28;20056;-81
2022/08/17 08:31:20;;;;;;;8.18;5.50;;;;;;;24.19;56.12;98385.22;5055766;28;20547;-81
2022/08/17 08:33:55;;;;;;;10.80;4.97;;;;;;;24.31;55.77;98391.41;5060259;28;20024;-81
2022/08/17 08:36:38;;;;;;;13.00;5.72;;;;;;;24.38;55.51;98388.88;5054999;28;20112;-81
2022/08/17 08:39:34;;;;;;;7.07;5.13;;;;;;;24.29;55.25;98376.53;5064131;28;20040;-81
2022/08/17 08:42:13;;;;;;;4.93;4.45;;;;;;;24.27;56.60;98378.81;5056429;28;20090;-81
2022/08/17 08:45:00;;;;;;;8.68;4.88;;;;;;;24.42;55.46;98386.22;5056865;28;20067;-81
2022/08/17 08:47:47;;;;;;;5.70;4.47;;;;;;;24.36;55.94;98379.44;5059175;28;20028;-81
2022/08/17 08:50:22;;;;;;;;;;;;;;;24.34;57.66;98382.53;5051570;28;20029;-81
2022/08/17 08:52:56;;;;;;;12.40;5.20;;;;;;;24.54;56.20;98384.22;5057482;28;19912;-81
2022/08/17 08:55:25;;;;;;;8.55;5.57;;;;;;;24.56;55.96;98392.84;5055321;28;20024;-81
2022/08/17 08:57:59;;;;;;;5.43;4.78;;;;;;;24.88;54.64;98379.25;5050624;28;20032;-81
2022/08/17 09:00:26;;;;;;;5.15;4.68;;;;;;;25.09;54.40;98398.88;5051495;28;20037;-81
2022/08/17 09:03:22;;;;;;;7.30;4.53;;;;;;;24.97;54.87;98391.56;5061828;28;20025;-81
2022/08/17 09:06:26;;;;;;;10.13;4.40;;;;;;;25.11;54.96;98396.59;5057963;28;20047;-81
2022/08/17 09:09:07;;;;;;;7.95;4.57;;;;;;;25.01;53.36;98391.66;5042706;28;20045;-81
2022/08/17 09:11:42;;;;;;;5.78;4.05;;;;;;;25.27;53.17;98389.94;5054610;28;20650;-81
2022/08/17 09:14:20;;;;;;;;;;;;;;;25.35;53.82;98401.81;5051701;28;20025;-80
2022/08/17 09:16:55;;;;;;;7.35;4.07;;;;;;;25.58;53.00;98401.97;5071969;28;20341;-81
2022/08/17 09:19:29;;;;;;;7.57;4.05;;;;;;;25.58;52.62;98401.97;5050236;28;20025;-81
2022/08/17 09:22:02;;;;;;;5.65;4.53;;;;;;;25.65;51.94;98391.97;5055981;28;20388;-81
2022/08/17 09:24:55;;;;;;;6.35;4.30;;;;;;;25.79;51.89;98396.97;5060755;28;20112;-81
2022/08/17 09:27:31;;;;;;;5.03;4.57;;;;;;;25.87;52.07;98396.75;5051119;28;20029;-81
2022/08/17 09:30:01;;;;;;;4.55;4.15;;;;;;;26.02;51.81;98390.41;5056433;28;20029;-81
2022/08/17 09:32:37;;;;;;;4.97;4.22;;;;;;;26.05;51.75;98388.91;5055403;28;20037;-81
2022/08/17 09:35:19;;;;;;;4.70;4.28;;;;;;;26.08;51.61;98373.72;5060101;28;20032;-81
2022/08/17 09:38:05;;;;;;;6.97;4.13;;;;;;;26.09;50.05;98376.13;5054919;28;20095;-81
2022/08/17 09:41:09;;;;;;;4.95;3.63;;;;;;;26.21;51.76;98367.72;5051908;28;20028;-81
2022/08/17 09:43:54;;;;;;;6.20;4.03;;;;;;;26.58;51.17;98370.78;5054320;28;20036;-82
2022/08/17 09:46:33;;;;;;;5.60;3.83;;;;;;;26.53;51.01;98351.91;5061462;28;20648;-81
2022/08/17 09:49:05;;;;;;;8.88;3.97;;;;;;;26.56;49.56;98365.63;5053661;28;20128;-81
2022/08/17 09:51:42;;;;;;;6.25;4.15;;;;;;;26.80;50.23;98361.00;5063430;28;20063;-81
2022/08/17 09:54:22;;;;;;;5.68;4.47;;;;;;;26.91;49.29;98356.47;5066079;28;20029;-81
2022/08/17 09:56:54;;;;;;;7.30;4.22;;;;;;;27.10;48.76;98361.84;5052280;28;20056;-82
2022/08/17 09:59:48;;;;;;;3.45;3.25;;;;;;;27.32;49.12;98358.28;5056355;28;20449;-81
2022/08/17 10:02:49;;;;;;;5.60;3.60;;;;;;;27.47;46.47;98362.81;5053517;28;20059;-82
2022/08/17 10:05:40;;;;;;;4.28;3.97;;;;;;;27.71;47.91;98345.91;5086032;28;20123;-82
2022/08/17 10:08:29;;;;;;;4.05;3.65;;;;;;;27.74;46.36;98334.16;5053466;28;20028;-81
2022/08/17 10:11:16;;;;;;;3.83;3.53;;;;;;;27.89;45.49;98338.66;5055794;28;20500;-82
2022/08/17 10:13:59;;;;;;;3.72;3.10;;;;;;;28.23;47.41;98344.94;5056078;28;20047;-82
2022/08/17 10:16:34;;;;;;;4.70;4.00;;;;;;;28.07;45.00;98336.94;5052898;28;20056;-82
2022/08/17 10:19:02;;;;;;;4.60;3.40;;;;;;;27.78;45.60;98336.97;5059756;28;20124;-82
2022/08/17 10:27:39;;;;;;;4.45;3.63;;;;;;;28.58;44.48;98317.06;5058040;28;20047;-82
2022/08/17 10:30:09;;;;;;;5.38;3.83;;;;;;;28.79;44.05;98326.25;5063339;28;20499;-81
2022/08/17 10:32:53;;;;;;;8.88;5.50;;;;;;;28.64;44.89;98319.06;5057315;28;20040;-81
2022/08/17 10:35:32;;;;;;;8.10;4.00;;;;;;;28.95;43.99;98331.47;5059721;28;20029;-81
2022/08/17 10:38:16;;;;;;;9.30;3.90;;;;;;;28.92;43.43;98341.28;5057741;28;20101;-81
2022/08/17 10:40:52;;;;;;;4.30;3.90;;;;;;;28.88;43.46;98325.94;5073689;28;20024;-81
2022/08/17 10:43:18;;;;;;;6.90;3.78;;;;;;;28.86;42.83;98323.56;5073557;28;20372;-81
2022/08/17 10:46:12;;;;;;;9.38;4.20;;;;;;;28.73;44.10;98311.31;5072787;28;20035;-81
2022/08/17 10:48:38;;;;;;;5.65;4.03;;;;;;;28.70;43.18;98314.81;5063093;28;20083;-81
2022/08/17 10:51:28;;;;;;;7.65;4.40;;;;;;;28.98;44.20;98317.00;5061144;28;20029;-80
2022/08/17 10:53:55;;;;;;;4.07;3.65;;;;;;;29.50;43.16;98319.28;5054178;28;20071;-82
2022/08/17 10:56:23;;;;;;;5.30;4.10;;;;;;;29.77;43.61;98322.56;5059118;28;20020;-81
2022/08/17 10:58:52;;;;;;;6.03;4.07;;;;;;;29.74;44.19;98322.50;5048888;28;20500;-80
2022/08/17 11:01:42;;;;;;;4.18;3.28;;;;;;;29.84;42.47;98295.06;5067059;28;20036;-80
2022/08/17 11:04:17;;;;;;;5.20;4.00;;;;;;;29.71;42.50;98310.31;5053364;28;20544;-81
2022/08/17 11:07:30;;;;;;;6.05;3.63;;;;;;;29.50;41.76;98318.50;5054767;28;20040;-80
2022/08/17 11:10:14;;;;;;;6.35;3.83;;;;;;;29.83;41.94;98314.72;5065069;28;20029;-80
2022/08/17 11:12:55;;;;;;;4.60;3.50;;;;;;;29.88;42.68;98297.84;5061308;28;20120;-81
2022/08/17 11:15:36;;;;;;;4.20;3.80;;;;;;;29.99;43.04;98301.41;5066780;28;20028;-81
2022/08/17 11:18:05;;;;;;;4.95;3.55;;;;;;;30.12;41.03;98288.84;5066215;28;20060;-81
2022/08/17 11:21:09;;;;;;;4.40;3.70;;;;;;;30.13;40.88;98287.66;5065956;28;20029;-81
2022/08/17 11:23:50;;;;;;;7.22;3.30;;;;;;;30.50;39.93;98287.31;5049991;28;20503;-81
2022/08/17 11:26:37;;;;;;;6.32;3.75;;;;;;;30.07;40.16;98279.00;5062474;28;20392;-81
2022/08/17 11:29:17;;;;;;;4.15;3.28;;;;;;;31.06;41.68;98299.13;5052126;28;20376;-81
2022/08/17 11:31:57;;;;;;;3.53;3.28;;;;;;;31.32;39.55;98284.09;5061673;28;20030;-81
2022/08/17 11:34:25;;;;;;;3.10;2.90;;;;;;;31.63;39.92;98298.97;5050670;28;20039;-81
2022/08/17 11:37:08;;;;;;;5.78;3.47;;;;;;;31.59;39.65;98295.44;5051751;28;20108;-81
2022/08/17 11:39:48;;;;;;;5.05;3.40;;;;;;;31.96;38.11;98301.19;5064654;28;20021;-81
2022/08/17 11:42:55;;;;;;;7.75;2.78;;;;;;;31.98;38.29;98304.34;5055629;28;20551;-81
2022/08/17 11:46:04;;;;;;;3.55;3.20;;;;;;;32.15;37.52;98308.97;5057713;28;20043;-81
2022/08/17 11:51:53;;;;;;;4.53;3.08;;;;;;;31.68;37.87;98301.31;5063292;28;20043;-81
2022/08/17 11:54:40;;;;;;;4.93;3.17;;;;;;;31.75;38.32;98301.28;5058192;28;20039;-81
2022/08/17 11:57:40;;;;;;;3.30;3.00;;;;;;;31.46;38.80;98300.63;5046516;28;20044;-81
2022/08/17 12:00:27;;;;;;;2.92;2.72;;;;;;;31.23;38.70;98299.50;5058295;28;20135;-81
2022/08/17 12:03:21;;;;;;;5.15;3.17;;;;;;;31.14;37.25;98285.31;5047734;28;20047;-81
2022/08/17 12:05:47;;;;;;;2.97;2.60;;;;;;;30.99;39.00;98284.56;5059395;28;20507;-81
2022/08/17 12:08:21;;;;;;;3.08;2.88;;;;;;;30.80;38.20;98296.75;5046565;28;20047;-81
2022/08/17 12:11:15;;;;;;;3.17;2.78;;;;;;;30.64;38.83;98273.56;5060153;28;20555;-81
2022/08/17 12:13:48;;;;;;;3.33;2.80;;;;;;;30.73;37.43;98298.75;5061209;28;20032;-81
2022/08/17 12:16:19;;;;;;;4.05;2.75;;;;;;;30.47;38.55;98302.66;5048208;28;20033;-80
2022/08/17 12:19:01;;;;;;;3.15;2.50;;;;;;;30.51;38.46;98303.47;5060601;28;20028;-80
2022/08/17 12:21:26;;;;;;;3.90;2.40;;;;;;;30.58;37.77;98291.69;5082428;28;20025;-81
2022/08/17 12:24:05;;;;;;;5.25;3.00;;;;;;;30.26;39.00;98302.63;5056967;28;20050;-81
2022/08/17 12:26:34;;;;;;;3.92;3.33;;;;;;;30.21;38.89;98284.53;5064674;28;20032;-79
2022/08/17 12:29:13;;;;;;;11.50;3.00;;;;;;;30.00;39.29;98295.50;5054218;28;20114;-79
2022/08/17 12:31:44;;;;;;;3.00;2.80;;;;;;;29.96;39.30;98293.91;5059948;28;20032;-79